Nyala, Nevada Weather observations

Data are for observation ending at time listed.
 Day   Time    Ave.   Ave.  Ave.  Vector   Max.   Stn.    Total    Solar   Ave.  
  of    of     Air    Rel.  Wind   Wind    Wind   Baro.  Precip.   Rad.    Soil  
Year   Day     Temp.  Hum.  Speed  Dir.    Gust   Pres.                    Temp. 
2017   (PST)    F      %     mph   deg.    mph     mb.     in.     W/m2     F   
------------------------------------------------------------------------------
  17    4:00   11.5    89    0.7    85      3.0    856     0.00       0    24.4
  17    5:00   12.5    88    1.7   126      3.5    856     0.00       0    23.7
  17    6:00   10.1    87    1.6   160      3.9    856     0.00       0    23.0
  17    7:00   10.3    88    3.1   159      5.0    856     0.00       0    22.4
  17    8:00   11.5    87    3.3   172      5.4    857     0.00       5    21.8
  17    9:00   14.4    84    1.0   129      3.0    857     0.00      74    21.4
  17   10:00   25.5    68    0.7   259      3.2    858     0.00     164    21.5
  17   11:00   28.2    60    1.3   255      4.5    858     0.00     220    22.2
  17   12:00   32.2    49    1.3   288      5.6    857     0.00     246    23.4
  17   13:00   34.9    42    2.1   275      6.4    856     0.00     244    25.2
  17   14:00   37.0    39    2.0   240      6.1    855     0.00     217    28.2
  17   15:00   38.6    36    1.6   306      5.1    855     0.00     166    30.4
  17   16:00   36.8    39    1.3   336      4.3    855     0.00      97    30.5
  17   17:00   35.6    42    0.6   299      2.2    855     0.00       7    30.3
  17   18:00   28.2    58    1.8   106      4.9    855     0.00       0    30.2
  17   19:00   25.3    64    1.8   140      5.1    855     0.00       0    29.9
  17   20:00   24.8    68    2.9   126      5.8    855     0.00       0    29.3
  17   21:00   24.9    68    2.8   110      5.6    856     0.00       0    28.6
  17   22:00   22.2    71    4.3   184      8.1    855     0.00       0    27.9
  17   23:00   21.0    75    2.6   135      5.1    855     0.00       0    27.3
  18    0:00   19.8    76    2.3   135      5.0    855     0.00       0    26.7
  18    1:00   20.1    76    4.2   149      6.9    855     0.00       0    26.0
  18    2:00   15.5    81    2.4    30      7.7    855     0.00       0    25.5
  18    3:00   14.8    83    0.8   132      3.4    855     0.00       0    24.9

Return to Nyala, Nevada graphs page.


Western Regional Climate Center,wrcc@dri.edu